Time;durP1;ratioP1;P1;durP2;ratioP2;P2;SDS_P1;SDS_P2;PMS_P1;PMS_P2;Temp;Humidity;BMP_temperature;BMP_pressure;BME280_temperature;BME280_humidity;BME280_pressure;Samples;Min_cycle;Max_cycle;Signal;HPM_P1;HPM_P2
2024/01/19 00:12:59;;;;;;;46.40;20.20;;;;;;;-2.79;85.62;99168.06;681918;1262;140970;-80
2024/01/19 00:28:03;;;;;;;45.90;16.50;;;;;;;-2.75;85.54;99202.91;682177;1261;139470;-81
2024/01/19 00:43:08;;;;;;;32.40;12.90;;;;;;;-2.79;86.03;99229.49;682042;1263;140073;-80
2024/01/19 00:58:12;;;;;;;33.20;13.30;;;;;;;-2.98;85.47;99249.58;682211;1263;139341;-80
2024/01/19 01:13:17;;;;;;;40.40;16.90;;;;;;;-3.16;85.15;99265.52;682156;1263;140447;-80
2024/01/19 01:28:20;;;;;;;40.40;17.20;;;;;;;-3.35;84.84;99286.27;682275;1260;139679;-81
2024/01/19 01:43:25;;;;;;;34.90;13.00;;;;;;;-3.43;85.50;99307.98;682040;1263;139829;-80
2024/01/19 01:58:28;;;;;;;37.20;14.90;;;;;;;-3.41;85.60;99327.04;682270;1263;139859;-80
2024/01/19 02:13:33;;;;;;;32.20;11.50;;;;;;;-3.38;86.08;99343.66;682056;1263;140329;-81
2024/01/19 02:28:37;;;;;;;40.80;14.60;;;;;;;-3.24;86.46;99362.02;682061;1262;139654;-80
2024/01/19 02:43:40;;;;;;;34.40;12.50;;;;;;;-3.02;87.22;99367.50;682054;1264;140295;-80
2024/01/19 02:58:44;;;;;;;23.50;9.20;;;;;;;-2.90;86.83;99391.25;682136;1263;139687;-80
2024/01/19 03:13:50;;;;;;;28.20;9.70;;;;;;;-2.94;87.24;99406.98;682019;1262;139633;-80
2024/01/19 03:28:54;;;;;;;30.20;10.70;;;;;;;-2.83;87.40;99412.45;682143;1262;139234;-79
2024/01/19 03:43:57;;;;;;;34.90;13.00;;;;;;;-2.75;87.38;99435.04;682171;1263;140417;-79
2024/01/19 03:59:00;;;;;;;31.40;13.60;;;;;;;-2.72;87.08;99449.28;681997;1264;139559;-79
2024/01/19 04:14:04;;;;;;;35.60;13.70;;;;;;;-2.77;87.60;99459.77;682022;1263;140399;-79
2024/01/19 04:29:10;;;;;;;35.50;11.90;;;;;;;-2.79;87.15;99470.64;681820;1265;140209;-79
2024/01/19 04:44:14;;;;;;;29.30;11.50;;;;;;;-2.83;87.35;99485.38;681733;1265;140562;-79
2024/01/19 04:59:17;;;;;;;27.10;11.80;;;;;;;-2.89;86.74;99485.32;681791;1265;139594;-80
2024/01/19 05:14:21;;;;;;;53.20;21.90;;;;;;;-2.98;86.53;99508.65;681669;1265;140707;-79
2024/01/19 05:29:25;;;;;;;82.40;35.50;;;;;;;-3.06;86.81;99509.34;681745;1266;139455;-79
2024/01/19 05:44:29;;;;;;;40.50;19.70;;;;;;;-3.00;88.07;99523.10;681496;1264;140324;-79
2024/01/19 05:59:34;;;;;;;41.00;16.90;;;;;;;-3.03;88.52;99529.56;681625;1265;139887;-79
2024/01/19 06:14:38;;;;;;;49.50;21.00;;;;;;;-3.10;87.66;99525.42;681698;1262;140599;-79
2024/01/19 06:29:42;;;;;;;32.40;13.60;;;;;;;-3.27;88.17;99549.08;681732;1277;142228;-79
2024/01/19 06:44:46;;;;;;;34.10;15.30;;;;;;;-3.35;87.95;99560.52;681819;1262;140140;-79
2024/01/19 06:59:49;;;;;;;56.60;20.00;;;;;;;-3.56;87.98;99572.67;681938;1265;139756;-79
2024/01/19 07:14:53;;;;;;;84.10;29.60;;;;;;;-3.61;88.56;99586.40;681834;1265;139335;-80
2024/01/19 07:29:57;;;;;;;56.80;22.20;;;;;;;-3.52;88.67;99595.40;681714;1262;145001;-80
2024/01/19 07:45:00;;;;;;;65.90;21.50;;;;;;;-3.39;88.16;99603.79;681654;1265;139780;-81
2024/01/19 08:00:06;;;;;;;68.50;23.20;;;;;;;-3.27;88.16;99606.70;681714;1260;139796;-81
2024/01/19 08:15:10;;;;;;;68.60;26.70;;;;;;;-3.26;88.32;99618.29;681657;1266;141992;-80
2024/01/19 08:30:16;;;;;;;61.90;24.70;;;;;;;-2.93;88.17;99623.05;681792;1263;139478;-82
2024/01/19 08:45:19;;;;;;;70.00;27.60;;;;;;;-2.22;88.07;99630.57;681950;1266;140495;-81
2024/01/19 09:00:24;;;;;;;86.80;32.90;;;;;;;-1.41;86.32;99643.75;681741;1265;140065;-81
2024/01/19 09:15:27;;;;;;;250.60;85.20;;;;;;;-0.40;85.18;99655.50;681889;1265;140246;-79
2024/01/19 09:30:31;;;;;;;77.10;29.60;;;;;;;-0.06;83.44;99687.41;681842;1265;143823;-80
2024/01/19 09:45:43;;;;;;;63.30;24.80;;;;;;;-0.52;83.76;99695.67;681878;1264;139801;-79
2024/01/19 10:00:48;;;;;;;66.00;26.70;;;;;;;-0.29;83.32;99684.55;681962;1265;141085;-79
2024/01/19 10:15:51;;;;;;;85.00;31.90;;;;;;;-0.09;82.91;99681.42;681837;1266;139646;-79
2024/01/19 10:31:13;;;;;;;157.80;45.70;;;;;;;0.14;82.70;99693.41;681593;1266;141430;-79
2024/01/19 10:46:23;;;;;;;44.70;19.60;;;;;;;0.37;82.78;99697.35;681813;1270;141369;-79
2024/01/19 11:02:01;;;;;;;37.10;17.80;;;;;;;0.39;82.30;99709.27;681622;1260;140442;-80
2024/01/19 11:17:06;;;;;;;37.80;18.40;;;;;;;0.23;82.35;99730.42;681656;1264;139510;-79
2024/01/19 11:32:11;;;;;;;31.40;15.90;;;;;;;0.45;82.21;99750.79;681690;1265;139742;-79
2024/01/19 11:47:34;;;;;;;28.90;13.40;;;;;;;0.37;82.15;99757.70;681669;1264;139686;-79
2024/01/19 12:02:39;;;;;;;53.20;20.30;;;;;;;0.57;81.74;99752.32;681832;1264;139478;-80
2024/01/19 12:17:44;;;;;;;30.80;13.50;;;;;;;0.55;81.81;99736.77;681466;1266;139412;-81
2024/01/19 12:32:48;;;;;;;30.70;12.80;;;;;;;1.04;80.77;99747.52;681476;1264;139874;-79
2024/01/19 12:47:52;;;;;;;35.30;13.20;;;;;;;0.84;79.85;99780.09;681731;1266;140367;-79
2024/01/19 13:02:58;;;;;;;30.60;12.00;;;;;;;0.68;80.24;99800.45;681893;1260;140808;-80
2024/01/19 13:18:15;;;;;;;30.40;13.40;;;;;;;0.89;79.67;99818.40;681632;1265;139931;-79
2024/01/19 13:33:23;;;;;;;23.40;10.80;;;;;;;0.88;79.73;99848.61;681644;1261;139621;-79
2024/01/19 13:48:28;;;;;;;36.90;13.30;;;;;;;0.93;79.30;99865.05;681711;1266;139661;-79
2024/01/19 14:03:34;;;;;;;31.80;16.20;;;;;;;0.90;79.25;99908.56;681813;1265;141050;-81
2024/01/19 14:18:38;;;;;;;55.60;21.90;;;;;;;0.92;79.86;99933.11;681717;1265;139596;-79
2024/01/19 14:33:43;;;;;;;36.50;17.80;;;;;;;0.84;80.44;99952.62;681684;1261;140699;-79
2024/01/19 14:48:46;;;;;;;38.70;15.30;;;;;;;0.79;80.06;99966.99;681579;1267;141011;-79
2024/01/19 15:03:51;;;;;;;48.50;18.50;;;;;;;0.73;80.78;99980.91;681766;1265;140858;-79
2024/01/19 15:18:56;;;;;;;53.50;19.40;;;;;;;0.73;81.70;100006.41;681493;1262;140622;-79
2024/01/19 15:34:00;;;;;;;32.10;14.20;;;;;;;0.82;81.46;100025.75;681721;1261;140586;-80
2024/01/19 15:49:03;;;;;;;30.20;12.40;;;;;;;0.62;81.94;100036.42;681669;1262;141009;-80
2024/01/19 16:04:07;;;;;;;40.20;16.80;;;;;;;0.49;82.00;100068.70;681813;1262;139799;-80
2024/01/19 16:19:11;;;;;;;111.60;37.30;;;;;;;0.46;82.69;100081.45;681576;1262;140016;-80
2024/01/19 16:34:15;;;;;;;58.40;25.10;;;;;;;0.39;83.64;100096.56;681793;1261;140821;-80
2024/01/19 16:49:20;;;;;;;46.30;20.30;;;;;;;0.41;83.56;100103.70;681671;1262;140785;-80
2024/01/19 17:04:24;;;;;;;31.90;13.20;;;;;;;0.33;83.32;100121.12;681572;1262;141111;-80
2024/01/19 17:19:30;;;;;;;31.50;12.30;;;;;;;0.11;82.87;100132.27;681732;1265;139843;-80
2024/01/19 17:34:35;;;;;;;45.30;17.90;;;;;;;-0.09;83.48;100140.11;681795;1266;139671;-80
2024/01/19 17:49:41;;;;;;;24.30;12.60;;;;;;;-0.34;83.76;100158.05;681743;1264;140070;-79
2024/01/19 18:04:48;;;;;;;44.50;20.10;;;;;;;-0.25;83.56;100179.84;681773;1261;139754;-80
2024/01/19 18:19:52;;;;;;;52.20;19.50;;;;;;;-0.40;83.73;100185.66;681817;1267;141877;-81
2024/01/19 18:34:57;;;;;;;60.60;20.50;;;;;;;-0.31;84.14;100182.16;681674;1265;139848;-79
2024/01/19 18:50:00;;;;;;;39.30;15.70;;;;;;;-0.36;83.68;100207.13;681449;1265;140667;-80
2024/01/19 19:05:06;;;;;;;36.10;13.00;;;;;;;-0.40;83.94;100227.08;681697;1267;141223;-80
2024/01/19 19:20:11;;;;;;;50.30;15.60;;;;;;;-0.44;83.56;100248.05;681428;1261;140667;-80
2024/01/19 19:35:16;;;;;;;28.70;12.80;;;;;;;-0.55;83.59;100244.56;681522;1276;165760;-80
2024/01/19 19:50:20;;;;;;;39.00;17.40;;;;;;;-0.61;84.58;100242.40;681281;1263;140670;-81
2024/01/19 20:05:25;;;;;;;34.50;12.60;;;;;;;-0.55;84.91;100254.01;681669;1261;141060;-80
2024/01/19 20:20:33;;;;;;;50.10;14.20;;;;;;;-0.41;85.27;100268.88;681453;1262;139963;-80
2024/01/19 20:35:37;;;;;;;39.40;15.00;;;;;;;-0.18;86.00;100272.20;681812;1265;140214;-81
2024/01/19 20:50:46;;;;;;;28.60;12.30;;;;;;;-0.26;85.87;100284.73;681306;1262;139799;-80
2024/01/19 21:05:52;;;;;;;32.10;13.00;;;;;;;-0.28;86.21;100292.75;681487;1267;140913;-79
2024/01/19 21:20:57;;;;;;;24.90;12.10;;;;;;;-0.21;86.69;100293.46;681479;1267;141715;-79
2024/01/19 21:36:05;;;;;;;31.30;13.90;;;;;;;-0.23;87.64;100298.86;681640;1265;139924;-79
2024/01/19 21:51:09;;;;;;;38.20;14.90;;;;;;;-0.17;87.62;100301.92;681298;1266;141643;-79
2024/01/19 22:06:14;;;;;;;33.60;13.20;;;;;;;-0.15;88.51;100303.50;681677;1265;140445;-80
2024/01/19 22:21:19;;;;;;;25.00;11.50;;;;;;;-0.01;88.37;100311.20;681173;1268;140329;-79
2024/01/19 22:36:23;;;;;;;34.40;17.30;;;;;;;0.23;88.39;100308.41;681208;1267;139840;-79
2024/01/19 22:51:27;;;;;;;39.80;15.00;;;;;;;0.41;89.83;100307.58;680904;1268;141557;-79
2024/01/19 23:06:30;;;;;;;28.80;11.90;;;;;;;0.45;91.26;100309.31;681364;1268;141367;-78
2024/01/19 23:21:35;;;;;;;31.70;14.20;;;;;;;0.54;92.05;100319.77;681485;1274;141508;-78
2024/01/19 23:36:40;;;;;;;31.70;15.90;;;;;;;0.65;93.04;100315.46;681552;1266;142821;-79
2024/01/19 23:51:44;;;;;;;49.00;22.30;;;;;;;0.74;93.96;100305.21;681344;1275;140173;-79
